Fuget, Kentucky
Current Conditions -  °F | °C
As of 6:55 PM on Saturday 22 Nov 2014 (Local Time) from KSJS Reporting Station
Overcast Overcast  
Wind Chill: 56°   Ceiling: 10000
Heat Index: 56°   Visibility: 10mi
Dew Point: 23°   Wind: 7mph
Humidity: 29%   Direction: 190°S
Pressure: 30.18"   Gusts: NA
Location:  37.9467°N, 82.8859°W
Report Text: KSJS 222355Z AUTO 19006KT 10SM OVC100 13/M05 A3018 RMK AO2 T01311048 10165 20131
Loading
Personal Weather Stations






























Interactive Weather Map New forecast layout! Learn more

10-Day Weather Forecast

Advertisements
Track Severe Weather on mobile